This is the latest recevied weather packets stored in our database for station/object KC9ZAR-13. If no packets are shown the sender has not sent any weather packets the latest 10 day(s).
| Time | Temp. | Humidity | Pressure | Rain* | Wind** | Luminosity | Snow |
|---|---|---|---|---|---|---|---|
| 1777848005 | 19.44° C | 45% | 1010.1 hPa | 0 mm | - | 0 W/m² | - |
| 1777847706 | 19.44° C | 45% | 1010.1 hPa | 0 mm | - | 0 W/m² | - |
| 1777847106 | 19.44° C | 45% | 1010.1 hPa | 0 mm | - | 0 W/m² | - |
| 1777846505 | 19.44° C | 46% | 1010.2 hPa | 0 mm | - | 0 W/m² | - |
| 1777845605 | 19.44° C | 45% | 1010.7 hPa | 0 mm | - | 0 W/m² | - |
| 1777845306 | 19.44° C | 45% | 1010.8 hPa | 0 mm | - | 0 W/m² | - |
| 1777841705 | 18.89° C | 48% | 1012.1 hPa | 0 mm | - | 0 W/m² | - |
| 1777840506 | 19.44° C | 45% | 1012.8 hPa | 0 mm | - | 0 W/m² | - |
| 1777839306 | 18.89° C | 45% | 1013.3 hPa | 0 mm | - | 0 W/m² | - |
| 1777837805 | 18.89° C | 45% | 1013.6 hPa | 0 mm | - | 0 W/m² | - |
| 1777836906 | 18.33° C | 45% | 1013.7 hPa | 0 mm | - | 0 W/m² | - |
| 1777836005 | 18.33° C | 49% | 1013.9 hPa | 0 mm | - | 0 W/m² | - |
| 1777829405 | 16.67° C | 52% | 1016.4 hPa | 0 mm | - | 0 W/m² | - |
| 1777824306 | 15.56° C | 57% | 1017.5 hPa | 0 mm | - | 0 W/m² | - |
| 1777823705 | 15° C | 57% | 1017.7 hPa | 0 mm | - | 0 W/m² | - |
| 1777821905 | 14.44° C | 57% | 1017.8 hPa | 0 mm | - | 0 W/m² | - |
| 1777821605 | 14.44° C | 56% | 1017.8 hPa | 0 mm | - | 0 W/m² | - |
| 1777821005 | 14.44° C | 57% | 1017.9 hPa | 0 mm | - | 0 W/m² | - |
| 1777815605 | 11.11° C | 61% | 1018 hPa | 0 mm | - | 0 W/m² | - |
| 1777813205 | 9.44° C | 70% | 1018.2 hPa | 0 mm | - | 0 W/m² | - |
| 1777812005 | 7.78° C | 74% | 1018.2 hPa | 0 mm | - | 0 W/m² | - |
| 1777809306 | 4.44° C | 87% | 1017.9 hPa | 0 mm | - | 0 W/m² | - |
| 1777807205 | 3.33° C | 89% | 1017.7 hPa | 0 mm | - | 0 W/m² | - |
| 1777806005 | 3.33° C | 89% | 1017.6 hPa | 0 mm | - | 0 W/m² | - |
| 1777801805 | 2.78° C | 89% | 1017.5 hPa | 0 mm | - | 0 W/m² | - |
* Rain latest hour (hover to see other rain measurements)
** Current wind speed in m/s (hover to see current wind gust speed)